Time;durP1;ratioP1;P1;durP2;ratioP2;P2;SDS_P1;SDS_P2;PMS_P1;PMS_P2;Temp;Humidity;BMP_temperature;BMP_pressure;BME280_temperature;BME280_humidity;BME280_pressure;Samples;Min_cycle;Max_cycle;Signal;HPM_P1;HPM_P2
2024/01/19 00:02:10;;;;;;;4.53;4.07;;;7.00;68.50;;;;;;5074086;28;20031;-70
2024/01/19 00:04:36;;;;;;;4.38;3.78;;;7.00;68.50;;;;;;5074222;28;20030;-70
2024/01/19 00:07:01;;;;;;;4.10;3.58;;;7.00;68.50;;;;;;5075619;28;20115;-70
2024/01/19 00:09:27;;;;;;;3.92;3.53;;;7.00;68.50;;;;;;5074353;28;20043;-70
2024/01/19 00:11:53;;;;;;;4.15;3.72;;;7.10;68.50;;;;;;5075520;28;20036;-69
2024/01/19 00:14:19;;;;;;;3.75;3.35;;;7.10;68.50;;;;;;5074080;28;20041;-71
2024/01/19 00:16:44;;;;;;;3.83;3.40;;;7.00;68.50;;;;;;5075728;28;20024;-70
2024/01/19 00:19:10;;;;;;;4.15;3.75;;;7.00;68.50;;;;;;5073913;28;20032;-70
2024/01/19 00:21:46;;;;;;;4.32;3.60;;;7.10;68.60;;;;;;5075448;28;20089;-69
2024/01/19 00:24:14;;;;;;;4.38;3.63;;;7.10;68.60;;;;;;5074001;28;20029;-69
2024/01/19 00:26:40;;;;;;;4.70;4.05;;;7.10;68.60;;;;;;5070231;28;20463;-70
2024/01/19 00:29:09;;;;;;;4.15;3.50;;;7.10;68.60;;;;;;5074161;28;20031;-69
2024/01/19 00:31:35;;;;;;;3.97;3.35;;;7.00;68.50;;;;;;5073732;28;20107;-71
2024/01/19 00:34:01;;;;;;;4.47;3.40;;;7.10;68.60;;;;;;5075200;28;20039;-69
2024/01/19 00:36:27;;;;;;;4.75;3.90;;;7.10;68.60;;;;;;5073715;28;20036;-69
2024/01/19 00:38:53;;;;;;;4.70;3.80;;;7.10;68.60;;;;;;5073883;28;20033;-69
2024/01/19 00:41:19;;;;;;;4.25;3.60;;;7.10;68.60;;;;;;5073471;28;20047;-69
2024/01/19 00:43:44;;;;;;;4.30;3.80;;;7.10;68.60;;;;;;5073744;28;20078;-69
2024/01/19 00:46:11;;;;;;;4.60;3.78;;;7.10;68.60;;;;;;5072755;28;20028;-69
2024/01/19 00:48:36;;;;;;;3.78;3.35;;;7.10;68.60;;;;;;5075161;28;20020;-69
2024/01/19 00:51:03;;;;;;;4.50;3.70;;;7.10;68.60;;;;;;5073243;28;20392;-70
2024/01/19 00:53:28;;;;;;;4.30;3.58;;;7.10;68.60;;;;;;5074021;28;20032;-70
2024/01/19 00:55:54;;;;;;;4.90;3.80;;;7.10;68.60;;;;;;5073181;28;20039;-69
2024/01/19 00:58:20;;;;;;;4.35;3.55;;;7.10;68.60;;;;;;5073009;28;20051;-71
2024/01/19 01:00:45;;;;;;;4.40;3.53;;;7.10;68.60;;;;;;5073250;28;20146;-71
2024/01/19 01:03:20;;;;;;;4.05;3.65;;;7.10;68.80;;;;;;5073147;28;20043;-71
2024/01/19 01:05:45;;;;;;;4.50;3.63;;;7.10;68.60;;;;;;5073145;28;20029;-69
2024/01/19 01:08:11;;;;;;;4.40;3.78;;;7.10;68.60;;;;;;5073408;28;20032;-70
2024/01/19 01:10:37;;;;;;;4.28;3.70;;;7.10;68.60;;;;;;5073229;28;20032;-69
2024/01/19 01:13:02;;;;;;;3.78;3.33;;;7.10;68.70;;;;;;5074014;28;20040;-70
2024/01/19 01:15:28;;;;;;;3.67;3.30;;;7.10;68.70;;;;;;5070384;28;20086;-70
2024/01/19 01:17:54;;;;;;;4.45;3.85;;;7.10;68.70;;;;;;5072804;28;20032;-69
2024/01/19 01:20:20;;;;;;;4.13;3.70;;;7.20;68.70;;;;;;5072814;28;20040;-69
2024/01/19 01:22:46;;;;;;;4.20;3.80;;;7.10;68.60;;;;;;5072939;28;20475;-70
2024/01/19 01:25:12;;;;;;;4.38;3.78;;;7.20;68.70;;;;;;5074457;28;20036;-71
2024/01/19 01:27:37;;;;;;;4.57;3.97;;;7.10;68.60;;;;;;5073200;28;20029;-69
2024/01/19 01:30:07;;;;;;;4.18;3.45;;;7.10;68.70;;;;;;5072325;28;20546;-70
2024/01/19 01:32:33;;;;;;;4.95;3.80;;;7.20;68.70;;;;;;5072859;28;20051;-70
2024/01/19 01:34:59;;;;;;;4.05;3.40;;;7.20;68.70;;;;;;5073312;28;20441;-69
2024/01/19 01:37:25;;;;;;;4.68;3.95;;;7.20;68.70;;;;;;5074018;28;20059;-69
2024/01/19 01:39:50;;;;;;;4.10;3.55;;;7.20;68.70;;;;;;5072753;28;20482;-70
2024/01/19 01:42:16;;;;;;;4.70;4.00;;;7.20;68.70;;;;;;5072286;28;20067;-70
2024/01/19 01:44:42;;;;;;;4.15;3.65;;;7.20;68.70;;;;;;5073690;28;20395;-70
2024/01/19 01:47:07;;;;;;;3.80;3.50;;;7.20;68.80;;;;;;5072577;28;20028;-68
2024/01/19 01:49:33;;;;;;;3.85;3.45;;;7.20;68.70;;;;;;5073487;28;20044;-70
2024/01/19 01:51:59;;;;;;;3.70;3.30;;;7.20;68.80;;;;;;5073700;28;20081;-69
2024/01/19 01:54:25;;;;;;;4.28;3.63;;;7.20;68.80;;;;;;5072470;28;20032;-70
2024/01/19 01:56:52;;;;;;;3.90;3.40;;;7.20;68.80;;;;;;5073218;28;20032;-69
2024/01/19 01:59:19;;;;;;;4.43;3.75;;;7.20;68.70;;;;;;5085243;28;20138;-71
2024/01/19 02:01:46;;;;;;;4.40;3.70;;;7.20;68.70;;;;;;5075839;28;20024;-70
2024/01/19 02:04:13;;;;;;;4.13;3.60;;;7.20;68.80;;;;;;5075426;28;20123;-70
2024/01/19 02:06:41;;;;;;;4.18;3.67;;;7.20;68.80;;;;;;5075714;28;20028;-70
2024/01/19 02:09:08;;;;;;;3.90;3.50;;;7.20;68.80;;;;;;5075570;28;20062;-71
2024/01/19 02:11:34;;;;;;;4.35;3.95;;;7.20;68.80;;;;;;5075484;28;20031;-71
2024/01/19 02:14:00;;;;;;;5.07;3.78;;;7.20;68.80;;;;;;5093674;28;20086;-69
2024/01/19 02:16:25;;;;;;;3.90;3.50;;;7.20;68.70;;;;;;5075494;28;20048;-69
2024/01/19 02:18:53;;;;;;;4.40;3.65;;;7.20;68.80;;;;;;5093142;28;20564;-69
2024/01/19 02:21:19;;;;;;;4.50;3.90;;;7.20;68.80;;;;;;5093502;28;20111;-70
2024/01/19 02:24:04;;;;;;;4.57;3.85;;;7.20;68.80;;;;;;5075242;28;20123;-69
2024/01/19 02:26:34;;;;;;;;;;;7.20;68.80;;;;;;5075440;28;20024;-71
2024/01/19 02:29:00;;;;;;;4.38;3.88;;;7.20;68.90;;;;;;5075667;28;19910;-71
2024/01/19 02:31:26;;;;;;;4.05;3.50;;;7.20;68.70;;;;;;5075710;28;20120;-70
2024/01/19 02:33:51;;;;;;;4.15;3.40;;;7.20;68.70;;;;;;5093277;28;20032;-71
2024/01/19 02:36:17;;;;;;;4.35;3.70;;;7.20;68.70;;;;;;5093741;28;20039;-72
2024/01/19 02:38:43;;;;;;;4.90;4.07;;;7.20;68.70;;;;;;5075051;28;20474;-71
2024/01/19 02:41:09;;;;;;;3.72;3.33;;;7.20;68.70;;;;;;5075459;28;20028;-70
2024/01/19 02:43:35;;;;;;;4.10;3.70;;;7.20;68.80;;;;;;5075049;28;20081;-71
2024/01/19 02:46:01;;;;;;;3.95;3.58;;;7.20;68.80;;;;;;5093191;28;20106;-69
2024/01/19 02:48:27;;;;;;;4.57;3.65;;;7.20;68.80;;;;;;5093202;28;20070;-71
2024/01/19 02:50:53;;;;;;;4.38;3.70;;;7.30;68.80;;;;;;5093738;28;20575;-70
2024/01/19 02:53:18;;;;;;;4.13;3.72;;;7.30;68.80;;;;;;5075254;28;20489;-71
2024/01/19 02:55:44;;;;;;;4.53;3.95;;;7.30;68.90;;;;;;5093260;28;20035;-69
2024/01/19 02:58:10;;;;;;;4.38;3.42;;;7.30;68.90;;;;;;5093841;28;20052;-70
2024/01/19 03:00:35;;;;;;;4.53;3.88;;;7.30;69.40;;;;;;5092968;28;20115;-69
2024/01/19 03:03:01;;;;;;;4.65;4.13;;;7.20;68.80;;;;;;5093111;28;20044;-70
2024/01/19 03:05:27;;;;;;;4.70;3.72;;;7.20;68.80;;;;;;5093299;28;20028;-70
2024/01/19 03:07:52;;;;;;;5.53;4.28;;;7.30;68.90;;;;;;5074877;28;20028;-69
2024/01/19 03:10:18;;;;;;;5.28;3.67;;;7.30;68.90;;;;;;5096717;28;20525;-70
2024/01/19 03:12:44;;;;;;;4.15;3.58;;;7.20;68.90;;;;;;5078939;28;20497;-70
2024/01/19 03:15:09;;;;;;;4.43;3.78;;;7.30;68.90;;;;;;5096952;28;20454;-69
2024/01/19 03:17:35;;;;;;;4.85;3.88;;;7.30;68.90;;;;;;5078653;28;20020;-69
2024/01/19 03:20:01;;;;;;;4.85;4.13;;;7.20;68.90;;;;;;5078080;28;20039;-71
2024/01/19 03:22:28;;;;;;;4.85;4.10;;;7.30;68.90;;;;;;5077599;28;20032;-73
2024/01/19 03:24:54;;;;;;;4.03;3.63;;;7.30;68.90;;;;;;5078228;28;20028;-69
2024/01/19 03:27:19;;;;;;;5.07;4.10;;;7.30;68.90;;;;;;5078783;28;20020;-69
2024/01/19 03:29:47;;;;;;;4.10;3.50;;;7.30;68.90;;;;;;5096190;28;20035;-70
2024/01/19 03:32:13;;;;;;;4.20;3.72;;;7.30;68.90;;;;;;5078346;28;20032;-69
2024/01/19 03:34:40;;;;;;;4.80;4.03;;;7.30;68.90;;;;;;5076736;28;20031;-70
2024/01/19 03:37:06;;;;;;;4.55;3.60;;;7.30;68.90;;;;;;5075035;28;20040;-69
2024/01/19 03:39:32;;;;;;;4.97;3.80;;;7.30;68.90;;;;;;5077556;28;20028;-69
2024/01/19 03:42:02;;;;;;;4.53;3.92;;;7.30;68.90;;;;;;5095581;28;20024;-69
2024/01/19 03:44:27;;;;;;;4.18;3.60;;;7.30;68.90;;;;;;5078370;28;20158;-70
2024/01/19 03:46:53;;;;;;;4.80;4.07;;;7.30;68.90;;;;;;5078631;28;20052;-69
2024/01/19 03:49:22;;;;;;;4.03;3.60;;;7.30;68.90;;;;;;5078007;28;20500;-71
2024/01/19 03:52:00;;;;;;;3.95;3.45;;;7.30;68.90;;;;;;5066698;28;20385;-70
2024/01/19 03:54:26;;;;;;;4.07;3.67;;;7.30;68.90;;;;;;5096124;28;20028;-70
2024/01/19 03:56:53;;;;;;;4.18;3.78;;;7.30;68.90;;;;;;5096344;28;20021;-70
2024/01/19 03:59:19;;;;;;;4.47;3.78;;;7.30;68.90;;;;;;5077723;28;20048;-70
2024/01/19 04:01:45;;;;;;;4.28;3.88;;;7.30;68.90;;;;;;5077519;28;20093;-69
2024/01/19 04:04:10;;;;;;;4.07;3.67;;;7.30;68.90;;;;;;5077368;28;20066;-70
2024/01/19 04:06:36;;;;;;;4.93;3.90;;;7.30;68.90;;;;;;5077841;28;20035;-69
2024/01/19 04:09:02;;;;;;;4.47;3.88;;;7.30;68.90;;;;;;5077350;28;20024;-69
2024/01/19 04:11:28;;;;;;;4.28;3.88;;;7.30;68.90;;;;;;5095716;28;20058;-69
2024/01/19 04:13:54;;;;;;;4.63;4.03;;;7.30;68.90;;;;;;5077362;28;20382;-70
2024/01/19 04:16:20;;;;;;;4.10;3.70;;;7.30;68.90;;;;;;5095464;28;20024;-70
2024/01/19 04:18:46;;;;;;;4.15;3.67;;;7.30;68.90;;;;;;5077050;28;20041;-69
2024/01/19 04:21:11;;;;;;;3.92;3.53;;;7.30;68.90;;;;;;5076635;28;20058;-69
2024/01/19 04:23:37;;;;;;;4.32;3.42;;;7.30;69.00;;;;;;5077430;28;20020;-71
2024/01/19 04:26:03;;;;;;;4.05;3.63;;;7.30;68.90;;;;;;5077515;28;20039;-70
2024/01/19 04:28:29;;;;;;;4.45;3.95;;;7.30;68.90;;;;;;5077771;28;20020;-69
2024/01/19 04:30:54;;;;;;;4.97;4.05;;;7.30;68.90;;;;;;5095092;28;20028;-70
2024/01/19 04:33:20;;;;;;;4.30;3.70;;;7.40;69.00;;;;;;5077064;28;20485;-69
2024/01/19 04:35:45;;;;;;;4.45;3.95;;;7.40;69.00;;;;;;5095219;28;20028;-70
2024/01/19 04:38:11;;;;;;;4.50;3.80;;;7.40;69.00;;;;;;5077245;28;20032;-69
2024/01/19 04:40:37;;;;;;;3.88;3.47;;;7.30;68.90;;;;;;5090093;28;20036;-70
2024/01/19 04:43:03;;;;;;;4.20;3.63;;;7.30;68.90;;;;;;5076529;28;20028;-71
2024/01/19 04:45:28;;;;;;;4.30;3.50;;;7.40;69.00;;;;;;5076921;28;20028;-70
2024/01/19 04:47:54;;;;;;;4.72;3.92;;;7.40;69.00;;;;;;5076713;28;20027;-69
2024/01/19 04:50:20;;;;;;;4.93;4.05;;;7.40;69.10;;;;;;5076375;28;21367;-72
2024/01/19 04:52:45;;;;;;;4.30;3.85;;;7.30;69.00;;;;;;5076834;28;20058;-69
2024/01/19 04:55:11;;;;;;;4.65;3.83;;;7.40;69.00;;;;;;5094491;28;20397;-70
2024/01/19 04:57:37;;;;;;;4.47;3.90;;;7.40;69.00;;;;;;5094604;28;20032;-72
2024/01/19 05:00:04;;;;;;;4.70;3.72;;;7.30;69.00;;;;;;5076096;28;20048;-69
2024/01/19 05:02:32;;;;;;;4.50;3.83;;;7.40;69.00;;;;;;5076096;28;20032;-68
2024/01/19 05:04:59;;;;;;;4.85;4.15;;;7.40;69.00;;;;;;5076512;28;20028;-69
2024/01/19 05:07:26;;;;;;;4.22;3.63;;;7.40;69.00;;;;;;5076169;28;20544;-71
2024/01/19 05:09:52;;;;;;;4.25;3.67;;;7.40;69.00;;;;;;5076021;28;20514;-71
2024/01/19 05:12:18;;;;;;;3.95;3.55;;;7.40;69.00;;;;;;5074356;28;20032;-71
2024/01/19 05:14:46;;;;;;;3.72;3.35;;;7.40;69.00;;;;;;5093130;28;20028;-72
2024/01/19 05:17:12;;;;;;;4.07;3.65;;;7.40;69.00;;;;;;5092981;28;20047;-72
2024/01/19 05:19:38;;;;;;;4.38;3.70;;;7.40;69.00;;;;;;5075738;28;20424;-72
2024/01/19 05:22:03;;;;;;;4.45;3.80;;;7.40;69.10;;;;;;5077023;28;20024;-72
2024/01/19 05:24:29;;;;;;;4.15;3.63;;;7.40;69.00;;;;;;5094142;28;20103;-71
2024/01/19 05:26:59;;;;;;;4.40;3.90;;;7.40;69.00;;;;;;5076261;28;20031;-73
2024/01/19 05:29:25;;;;;;;4.05;3.40;;;7.40;69.10;;;;;;5093831;28;20020;-71
2024/01/19 05:31:50;;;;;;;4.40;3.63;;;7.40;69.00;;;;;;5093553;28;20481;-69
2024/01/19 05:34:16;;;;;;;3.70;3.30;;;7.40;69.00;;;;;;5074986;28;20039;-70
2024/01/19 05:36:42;;;;;;;4.57;3.80;;;7.40;69.00;;;;;;5093874;28;20031;-68
2024/01/19 05:39:08;;;;;;;4.78;3.83;;;7.40;69.10;;;;;;5075862;28;20024;-67
2024/01/19 05:41:34;;;;;;;78.70;55.65;;;7.40;69.10;;;;;;5093696;28;20032;-70
2024/01/19 05:44:00;;;;;;;53.22;41.65;;;7.60;73.90;;;;;;5093858;28;20032;-69
2024/01/19 05:46:26;;;;;;;74.53;65.03;;;7.80;73.20;;;;;;5074615;28;20027;-69
2024/01/19 05:48:51;;;;;;;64.90;56.55;;;8.00;72.90;;;;;;5092009;28;20032;-75
2024/01/19 05:51:18;;;;;;;78.32;67.53;;;8.10;72.80;;;;;;5074788;28;20035;-70
2024/01/19 05:53:43;;;;;;;86.00;74.82;;;8.10;72.50;;;;;;5094309;28;20477;-69
2024/01/19 05:56:12;;;;;;;77.28;67.30;;;8.10;72.40;;;;;;5109664;28;20123;-71
2024/01/19 05:58:38;;;;;;;68.05;57.72;;;8.10;72.30;;;;;;5109346;28;20056;-70
2024/01/19 06:01:04;;;;;;;68.40;57.00;;;8.10;72.30;;;;;;5093654;28;20137;-70
2024/01/19 06:03:35;;;;;;;57.63;48.30;;;8.10;72.30;;;;;;5109870;28;20052;-68
2024/01/19 06:06:01;;;;;;;68.00;56.83;;;8.10;72.40;;;;;;5094343;28;20024;-69
2024/01/19 06:08:28;;;;;;;65.55;52.55;;;8.00;72.40;;;;;;5075826;28;20032;-70
2024/01/19 06:10:54;;;;;;;65.80;52.38;;;8.00;72.40;;;;;;5093845;28;20024;-69
2024/01/19 06:13:20;;;;;;;49.08;40.55;;;8.00;72.40;;;;;;5109614;28;20028;-69
2024/01/19 06:15:45;;;;;;;51.65;41.92;;;8.00;72.50;;;;;;5110023;28;20028;-70
2024/01/19 06:18:11;;;;;;;57.45;46.60;;;8.00;72.50;;;;;;5093852;28;20020;-70
2024/01/19 06:20:43;;;;;;;45.50;37.92;;;8.00;72.60;;;;;;5093786;28;20073;-69
2024/01/19 06:23:10;;;;;;;51.10;43.80;;;8.00;72.60;;;;;;5093849;28;20024;-70
2024/01/19 06:25:39;;;;;;;42.20;34.58;;;8.00;72.70;;;;;;5093712;28;20036;-69
2024/01/19 06:28:09;;;;;;;49.58;40.03;;;7.90;72.70;;;;;;5075591;28;20035;-69
2024/01/19 06:30:34;;;;;;;39.42;33.25;;;7.90;72.70;;;;;;5110033;28;20028;-70
2024/01/19 06:33:01;;;;;;;44.25;36.45;;;7.90;72.60;;;;;;5109315;28;20069;-68
2024/01/19 06:35:26;;;;;;;38.28;29.83;;;7.90;72.70;;;;;;5109205;28;20024;-71
2024/01/19 06:37:52;;;;;;;39.85;32.65;;;7.90;72.70;;;;;;5093421;28;20031;-69
2024/01/19 06:40:18;;;;;;;39.80;32.03;;;7.90;72.70;;;;;;5093360;28;20055;-70
2024/01/19 06:42:46;;;;;;;35.78;28.00;;;7.90;72.70;;;;;;5093322;28;20036;-69
2024/01/19 06:45:16;;;;;;;32.17;26.20;;;7.90;72.70;;;;;;5112584;28;20028;-69
2024/01/19 06:47:42;;;;;;;35.00;29.17;;;7.90;72.70;;;;;;5097267;28;20028;-70
2024/01/19 06:50:08;;;;;;;32.20;25.33;;;7.80;72.60;;;;;;5096921;28;20051;-70
2024/01/19 06:52:33;;;;;;;33.03;25.40;;;7.80;72.60;;;;;;5097550;28;20082;-69
2024/01/19 06:54:59;;;;;;;34.42;28.10;;;7.90;72.70;;;;;;5097029;28;20027;-72
2024/01/19 06:57:25;;;;;;;27.45;21.98;;;7.80;72.60;;;;;;5078667;28;20024;-71
2024/01/19 06:59:50;;;;;;;31.67;25.17;;;7.90;72.60;;;;;;5079293;28;20052;-72
2024/01/19 07:02:17;;;;;;;32.03;23.15;;;7.90;72.60;;;;;;5097627;28;20031;-79
2024/01/19 07:04:43;;;;;;;107.50;75.20;;;7.90;72.70;;;;;;5083047;28;20431;-73
2024/01/19 07:07:09;;;;;;;58.25;47.38;;;8.10;78.00;;;;;;5079047;28;20173;-72
2024/01/19 07:09:36;;;;;;;72.45;64.38;;;8.30;76.90;;;;;;5078828;28;20028;-73
2024/01/19 07:12:03;;;;;;;68.65;59.13;;;8.50;76.20;;;;;;5078782;28;20032;-73
2024/01/19 07:14:29;;;;;;;63.72;55.60;;;8.60;76.00;;;;;;5079082;28;20386;-73
2024/01/19 07:16:55;;;;;;;59.97;50.10;;;8.60;75.80;;;;;;5078943;28;20024;-73
2024/01/19 07:19:21;;;;;;;57.58;47.83;;;8.60;75.60;;;;;;5078653;28;20034;-72
2024/01/19 07:21:46;;;;;;;58.15;47.65;;;8.60;75.40;;;;;;5078679;28;20024;-74
2024/01/19 07:24:12;;;;;;;51.65;44.22;;;8.60;75.40;;;;;;5096897;28;20020;-74
2024/01/19 07:26:39;;;;;;;48.53;41.60;;;8.50;75.30;;;;;;5079319;28;20030;-73
2024/01/19 07:29:06;;;;;;;46.85;41.67;;;8.50;75.20;;;;;;5096687;28;20489;-74
2024/01/19 07:31:35;;;;;;;46.20;39.83;;;8.50;75.20;;;;;;5096850;28;20533;-70
2024/01/19 07:34:01;;;;;;;43.95;37.45;;;8.50;75.20;;;;;;5096958;28;20445;-73
2024/01/19 07:36:27;;;;;;;44.85;37.47;;;8.50;75.20;;;;;;5078669;28;20060;-71
2024/01/19 07:38:53;;;;;;;41.63;36.10;;;8.40;75.20;;;;;;5077885;28;20025;-72
2024/01/19 07:41:18;;;;;;;41.60;34.75;;;8.40;75.20;;;;;;5078465;28;20043;-71
2024/01/19 07:43:44;;;;;;;38.95;33.85;;;8.40;75.20;;;;;;5096741;28;20024;-70
2024/01/19 07:46:14;;;;;;;34.78;29.85;;;8.40;75.20;;;;;;5096792;28;20024;-71
2024/01/19 07:48:41;;;;;;;34.55;29.08;;;8.40;75.30;;;;;;5096260;28;20490;-73
2024/01/19 07:51:06;;;;;;;34.92;28.65;;;8.40;75.30;;;;;;5078480;28;20039;-72
2024/01/19 07:53:32;;;;;;;36.92;29.98;;;8.40;75.30;;;;;;5078291;28;20470;-72
2024/01/19 07:55:58;;;;;;;28.55;23.35;;;8.40;75.30;;;;;;5095608;28;20024;-72
2024/01/19 07:58:25;;;;;;;28.63;23.38;;;8.30;75.30;;;;;;5096652;28;20040;-72
2024/01/19 08:00:51;;;;;;;28.90;25.10;;;8.30;75.20;;;;;;5078270;28;20474;-73
2024/01/19 08:03:18;;;;;;;27.95;22.63;;;8.30;75.30;;;;;;5078737;28;20050;-73
2024/01/19 08:05:46;;;;;;;24.60;19.30;;;8.30;75.30;;;;;;5078838;28;20366;-76
2024/01/19 08:08:12;;;;;;;27.52;21.85;;;8.30;75.30;;;;;;5090545;28;20057;-74
2024/01/19 08:10:38;;;;;;;25.42;20.73;;;8.30;75.30;;;;;;5077959;28;20028;-72
2024/01/19 08:13:03;;;;;;;24.58;20.17;;;8.30;75.30;;;;;;5096255;28;20085;-72
2024/01/19 08:15:29;;;;;;;23.52;18.48;;;8.30;75.30;;;;;;5077864;28;20020;-73
2024/01/19 08:17:56;;;;;;;21.38;17.00;;;8.30;75.40;;;;;;5096297;28;20104;-71
2024/01/19 08:20:22;;;;;;;19.83;15.10;;;8.30;75.30;;;;;;5077478;28;20039;-73
2024/01/19 08:22:48;;;;;;;21.63;16.50;;;8.30;75.30;;;;;;5077294;28;20122;-76
2024/01/19 08:25:14;;;;;;;18.33;14.57;;;8.30;75.20;;;;;;5078138;28;20538;-76
2024/01/19 08:27:43;;;;;;;19.67;15.85;;;8.30;75.20;;;;;;5077924;28;20020;-73
2024/01/19 08:30:09;;;;;;;18.23;14.65;;;8.30;75.20;;;;;;5077527;28;20465;-76
2024/01/19 08:32:36;;;;;;;16.10;12.77;;;8.30;75.20;;;;;;5095625;28;20434;-73
2024/01/19 08:35:08;;;;;;;15.30;13.18;;;8.30;75.10;;;;;;5077002;28;20034;-72
2024/01/19 08:37:39;;;;;;;15.70;12.45;;;8.20;75.10;;;;;;5094616;28;20107;-75
2024/01/19 08:40:09;;;;;;;13.27;10.77;;;8.30;75.10;;;;;;5077288;28;20116;-73
2024/01/19 08:42:36;;;;;;;14.88;11.85;;;8.30;75.00;;;;;;5095532;28;20487;-74
2024/01/19 08:45:02;;;;;;;12.00;10.05;;;8.30;75.00;;;;;;5095767;28;20100;-73
2024/01/19 08:47:30;;;;;;;14.15;10.70;;;8.30;75.00;;;;;;5095393;28;20046;-72
2024/01/19 08:49:56;;;;;;;13.07;9.93;;;8.30;74.90;;;;;;5095321;28;20048;-73
2024/01/19 08:52:21;;;;;;;11.27;9.93;;;8.30;74.90;;;;;;5095303;28;20030;-72
2024/01/19 08:54:47;;;;;;;11.90;9.68;;;8.30;74.80;;;;;;5095022;28;20036;-74
2024/01/19 08:57:13;;;;;;;11.10;9.23;;;8.30;74.80;;;;;;5077178;28;20439;-72
2024/01/19 08:59:39;;;;;;;11.52;9.10;;;8.30;74.80;;;;;;5095274;28;20056;-74
2024/01/19 09:02:05;;;;;;;11.13;9.05;;;8.30;74.70;;;;;;5076169;28;20435;-72
2024/01/19 09:04:32;;;;;;;10.68;8.82;;;8.30;74.70;;;;;;5092946;28;20024;-73
2024/01/19 09:06:58;;;;;;;10.88;8.98;;;8.30;74.60;;;;;;5083558;28;20490;-73
2024/01/19 09:09:23;;;;;;;10.93;8.23;;;8.30;74.60;;;;;;5094993;28;20028;-72
2024/01/19 09:11:56;;;;;;;9.93;7.93;;;8.30;74.60;;;;;;5076889;28;20035;-71
2024/01/19 09:14:22;;;;;;;12.13;9.10;;;8.30;74.50;;;;;;5094782;28;20027;-72
2024/01/19 09:16:48;;;;;;;8.90;7.43;;;8.30;74.50;;;;;;5095058;28;20107;-72
2024/01/19 09:19:14;;;;;;;9.18;8.02;;;8.30;74.50;;;;;;5094879;28;20107;-73
2024/01/19 09:21:40;;;;;;;9.52;7.55;;;8.40;74.40;;;;;;5094786;28;20165;-73
2024/01/19 09:24:06;;;;;;;8.77;7.60;;;8.40;74.40;;;;;;5094590;28;20078;-72
2024/01/19 09:26:32;;;;;;;8.05;6.72;;;8.40;74.30;;;;;;5094803;28;20024;-74
2024/01/19 09:28:58;;;;;;;9.38;7.20;;;8.40;74.30;;;;;;5076606;28;20031;-74
2024/01/19 09:31:24;;;;;;;7.35;6.32;;;8.40;74.20;;;;;;5076363;28;20111;-73
2024/01/19 09:33:50;;;;;;;9.27;6.95;;;8.40;74.20;;;;;;5094428;28;20020;-74
2024/01/19 09:36:18;;;;;;;7.82;7.00;;;8.50;74.20;;;;;;5094546;28;20027;-74
2024/01/19 09:38:44;;;;;;;9.40;7.68;;;8.40;74.10;;;;;;5095003;28;20078;-74
2024/01/19 09:41:30;;;;;;;8.98;7.15;;;8.40;74.00;;;;;;5094240;28;20408;-74
2024/01/19 09:43:58;;;;;;;8.35;6.53;;;8.40;74.00;;;;;;5076268;28;20038;-72
2024/01/19 09:46:29;;;;;;;8.50;6.70;;;8.40;73.90;;;;;;5076104;28;20111;-73
2024/01/19 09:49:28;;;;;;;8.25;6.88;;;8.40;74.00;;;;;;5076260;28;20504;-74
2024/01/19 09:52:05;;;;;;;7.65;6.47;;;8.40;74.00;;;;;;5076280;28;20036;-74
2024/01/19 09:54:34;;;;;;;7.95;6.40;;;8.40;73.90;;;;;;5076415;28;20024;-74
2024/01/19 09:57:02;;;;;;;8.10;6.68;;;8.40;73.90;;;;;;5094168;28;20051;-75
2024/01/19 09:59:32;;;;;;;7.47;6.57;;;8.30;73.90;;;;;;5068884;28;20056;-74
2024/01/19 10:01:59;;;;;;;7.07;5.97;;;8.40;73.90;;;;;;5055825;28;20098;-74
2024/01/19 10:04:26;;;;;;;7.35;5.80;;;8.40;73.90;;;;;;5073699;28;20033;-72
2024/01/19 10:06:53;;;;;;;8.57;6.45;;;8.30;73.80;;;;;;5073491;28;20033;-73
2024/01/19 10:09:19;;;;;;;7.00;6.10;;;8.40;73.80;;;;;;5073432;28;20039;-73
2024/01/19 10:11:53;;;;;;;8.40;6.60;;;8.40;73.80;;;;;;5075450;28;20486;-73
2024/01/19 10:14:19;;;;;;;6.32;5.43;;;8.40;73.80;;;;;;5076289;28;20020;-72
2024/01/19 10:16:47;;;;;;;7.20;6.05;;;8.40;73.80;;;;;;5075942;28;20024;-74
2024/01/19 10:19:13;;;;;;;7.35;5.95;;;8.40;73.70;;;;;;5093222;28;20024;-74
2024/01/19 10:21:42;;;;;;;6.63;5.45;;;8.40;73.70;;;;;;5094001;28;20078;-74
2024/01/19 10:24:14;;;;;;;6.75;5.40;;;8.40;73.70;;;;;;5093737;28;20035;-72
2024/01/19 10:26:43;;;;;;;6.68;5.40;;;8.40;73.70;;;;;;5076184;28;20020;-73
2024/01/19 10:29:13;;;;;;;7.80;5.90;;;8.40;73.70;;;;;;5093657;28;20042;-74
2024/01/19 10:31:43;;;;;;;6.85;5.53;;;8.40;73.60;;;;;;5093683;28;20460;-72
2024/01/19 10:34:17;;;;;;;7.00;5.78;;;8.40;73.60;;;;;;5075661;28;20039;-72
2024/01/19 10:36:44;;;;;;;7.07;5.82;;;8.40;73.60;;;;;;5093544;28;20024;-72
2024/01/19 10:39:20;;;;;;;5.20;4.60;;;8.40;73.50;;;;;;5093919;28;20114;-74
2024/01/19 10:41:46;;;;;;;6.50;5.43;;;8.30;73.50;;;;;;5075526;28;20032;-74
2024/01/19 10:44:14;;;;;;;6.18;5.10;;;8.40;73.50;;;;;;5093290;28;20048;-76
2024/01/19 10:46:40;;;;;;;7.70;5.65;;;8.40;73.50;;;;;;5093322;28;20458;-74
2024/01/19 10:49:08;;;;;;;6.13;4.80;;;8.40;73.50;;;;;;5058941;28;20024;-74
2024/01/19 10:51:45;;;;;;;5.40;4.90;;;8.40;73.50;;;;;;5075687;28;20032;-73
2024/01/19 10:54:24;;;;;;;6.57;5.13;;;8.40;73.40;;;;;;5093583;28;20046;-73
2024/01/19 10:57:06;;;;;;;5.53;4.85;;;8.40;73.40;;;;;;5093632;28;20062;-74
2024/01/19 10:59:32;;;;;;;5.32;4.82;;;8.40;73.40;;;;;;5075481;28;20048;-73
2024/01/19 11:01:59;;;;;;;6.22;5.18;;;8.40;73.40;;;;;;5075556;28;20462;-73
2024/01/19 11:04:26;;;;;;;5.55;4.70;;;8.40;73.30;;;;;;5075422;28;20077;-73
2024/01/19 11:06:55;;;;;;;5.65;4.75;;;8.40;73.30;;;;;;5075018;28;20186;-74
2024/01/19 11:09:21;;;;;;;5.40;4.45;;;8.40;73.20;;;;;;5075143;28;20024;-72
2024/01/19 11:12:04;;;;;;;6.22;4.72;;;8.40;73.20;;;;;;5075342;28;20031;-73
2024/01/19 11:14:33;;;;;;;5.35;4.40;;;8.50;73.20;;;;;;5075822;28;20088;-72
2024/01/19 11:16:58;;;;;;;5.03;4.45;;;8.50;73.20;;;;;;5075248;28;20381;-72
2024/01/19 11:19:24;;;;;;;5.60;4.72;;;8.40;73.10;;;;;;5093682;28;20020;-73
2024/01/19 11:21:50;;;;;;;5.15;4.13;;;8.40;73.10;;;;;;5074999;28;20466;-72
2024/01/19 11:24:18;;;;;;;5.63;5.03;;;8.40;73.10;;;;;;5093800;28;20021;-72
2024/01/19 11:26:49;;;;;;;5.88;4.45;;;8.40;73.00;;;;;;5075108;28;20470;-71
2024/01/19 11:29:21;;;;;;;5.32;4.57;;;8.40;73.10;;;;;;5075566;28;20031;-72
2024/01/19 11:31:50;;;;;;;4.80;4.30;;;8.40;73.00;;;;;;5096934;28;20024;-73
2024/01/19 11:34:48;;;;;;;5.57;4.45;;;8.40;73.00;;;;;;5078836;28;20024;-74
2024/01/19 11:37:43;;;;;;;4.63;4.00;;;8.40;73.00;;;;;;5079248;28;20028;-75
2024/01/19 11:40:29;;;;;;;4.45;3.67;;;8.40;73.00;;;;;;5078917;28;20390;-73
2024/01/19 11:42:55;;;;;;;5.05;4.25;;;8.40;73.00;;;;;;5078498;28;20031;-73
2024/01/19 11:45:27;;;;;;;4.53;3.85;;;8.40;73.00;;;;;;5078883;28;20111;-73
2024/01/19 11:47:52;;;;;;;4.93;4.40;;;8.40;73.00;;;;;;5078675;28;20463;-74
2024/01/19 11:50:45;;;;;;;4.75;4.25;;;8.30;73.00;;;;;;5096526;28;20055;-73
2024/01/19 11:53:12;;;;;;;4.25;3.70;;;8.30;72.90;;;;;;5078571;28;20426;-74
2024/01/19 11:55:42;;;;;;;4.63;3.90;;;8.30;73.00;;;;;;5078796;28;20027;-74
2024/01/19 11:58:28;;;;;;;5.32;4.40;;;8.30;72.90;;;;;;5078226;28;20482;-73
2024/01/19 12:00:56;;;;;;;4.90;4.20;;;8.30;72.90;;;;;;5061878;28;20123;-74
2024/01/19 12:03:22;;;;;;;4.90;4.10;;;8.30;72.90;;;;;;5078138;28;20078;-75
2024/01/19 12:05:49;;;;;;;5.03;4.40;;;8.30;73.00;;;;;;5095552;28;20382;-71
2024/01/19 12:08:15;;;;;;;5.20;4.70;;;8.30;73.00;;;;;;5075869;28;20462;-73
2024/01/19 12:10:44;;;;;;;5.78;4.40;;;8.30;73.00;;;;;;5094930;28;20042;-75
2024/01/19 12:13:11;;;;;;;4.40;4.00;;;8.30;72.90;;;;;;5076157;28;20051;-73
2024/01/19 12:15:39;;;;;;;4.85;4.18;;;8.30;72.80;;;;;;5094101;28;20028;-77
2024/01/19 12:18:05;;;;;;;5.10;4.18;;;8.30;72.80;;;;;;5076850;28;20044;-76
2024/01/19 12:20:31;;;;;;;4.95;4.18;;;8.30;72.80;;;;;;5076107;28;20466;-75
2024/01/19 12:22:57;;;;;;;5.65;4.35;;;8.30;72.80;;;;;;5109663;28;20053;-75
2024/01/19 12:25:24;;;;;;;4.68;4.07;;;8.30;72.80;;;;;;5094068;28;20028;-73
2024/01/19 12:28:05;;;;;;;5.43;4.43;;;8.30;72.80;;;;;;5094044;28;20099;-74
2024/01/19 12:30:35;;;;;;;5.85;4.45;;;8.30;72.90;;;;;;5075734;28;20028;-73
2024/01/19 12:33:18;;;;;;;5.18;4.20;;;8.30;72.80;;;;;;5076087;28;20043;-73
2024/01/19 12:35:46;;;;;;;4.65;4.00;;;8.20;72.70;;;;;;5094302;28;20021;-72
2024/01/19 12:38:14;;;;;;;5.35;4.15;;;8.20;72.80;;;;;;5093806;28;20039;-73
2024/01/19 12:40:41;;;;;;;4.88;4.03;;;8.20;72.80;;;;;;5075968;28;20036;-73
2024/01/19 12:43:07;;;;;;;4.93;4.07;;;8.20;73.40;;;;;;5071182;28;20798;-72
2024/01/19 12:45:34;;;;;;;4.63;4.00;;;8.20;72.80;;;;;;5076206;28;20020;-74
2024/01/19 12:48:03;;;;;;;5.18;4.32;;;8.20;72.80;;;;;;5074551;28;20028;-72
2024/01/19 12:50:31;;;;;;;4.80;4.10;;;8.20;72.80;;;;;;5109080;28;20032;-71
2024/01/19 12:52:56;;;;;;;4.63;3.97;;;8.20;72.80;;;;;;5075374;28;20047;-74
2024/01/19 12:55:29;;;;;;;5.35;4.43;;;8.20;72.80;;;;;;5075538;28;20021;-72